Decoded Metar for LFSL (BRIVE in FRANCE) (IATA:N/A) | Meteo·Mobile Aviation Weather
aviador You're here:

LFSL Decoded Metar

BRIVE in FRANCE
Report Time2019-08-22 13:30:00
UTC Time2019-08-22 13:57:54
Flight Rules vfr VFR
Wind030° at 03 kt
W.Decomp.*RWY 11: 0.5 kt HW 3 kt LCW
Visibility9999 m
Phenomena:N/A
Clouds:N/A
Expected CloudBase > 8,000 ft AGL from Temp-Dew spread
CeilingNone
Temp29°C (ISA +16)
Dew Point09°C (29% RH)
Heat Index27.8°C
AAT27.7°C
QNH1022 hPa
Density Alt2,710 ft
Elevation1,016 ft
Report Wrong Elevation
Raw Report
LFSL 221330Z AUTO 03003KT 320V120 CAVOK 29/09 Q1022 NOSIG=

Extra information for LFSL:More info

Metar Taf Metar & Taf Last 4 Metars F.Rules Stats Wind Profile Meteogram Temp Stats Airport Information Weather charts Add Link Nearby VenuesMetar ALERT Operation Metar Decoded Social comments